sensor_id;sensor_type;location;lat;lon;timestamp;P1;durP1;ratioP1;P2;durP2;ratioP2
11582;SDS011;34299;50.820;4.548;2023-04-24T00:01:26;11.73;;;7.40;;
11582;SDS011;34299;50.820;4.548;2023-04-24T00:03:54;5.97;;;4.80;;
11582;SDS011;34299;50.820;4.548;2023-04-24T00:06:24;7.80;;;5.70;;
11582;SDS011;34299;50.820;4.548;2023-04-24T00:08:58;8.63;;;4.57;;
11582;SDS011;34299;50.820;4.548;2023-04-24T00:11:26;12.60;;;7.00;;
11582;SDS011;34299;50.820;4.548;2023-04-24T00:13:53;14.67;;;7.00;;
11582;SDS011;34299;50.820;4.548;2023-04-24T00:16:22;6.80;;;5.30;;
11582;SDS011;34299;50.820;4.548;2023-04-24T00:18:49;9.73;;;5.93;;
11582;SDS011;34299;50.820;4.548;2023-04-24T00:21:17;8.87;;;6.17;;
11582;SDS011;34299;50.820;4.548;2023-04-24T00:23:45;11.30;;;6.73;;
11582;SDS011;34299;50.820;4.548;2023-04-24T00:26:12;12.37;;;6.43;;
11582;SDS011;34299;50.820;4.548;2023-04-24T00:28:40;11.77;;;7.53;;
11582;SDS011;34299;50.820;4.548;2023-04-24T00:31:07;8.33;;;5.43;;
11582;SDS011;34299;50.820;4.548;2023-04-24T00:33:35;9.70;;;5.43;;
11582;SDS011;34299;50.820;4.548;2023-04-24T00:36:03;8.37;;;5.93;;
11582;SDS011;34299;50.820;4.548;2023-04-24T00:38:31;11.03;;;5.60;;
11582;SDS011;34299;50.820;4.548;2023-04-24T00:40:58;14.63;;;7.03;;
11582;SDS011;34299;50.820;4.548;2023-04-24T00:43:26;9.13;;;6.63;;
11582;SDS011;34299;50.820;4.548;2023-04-24T00:45:54;9.27;;;5.23;;
11582;SDS011;34299;50.820;4.548;2023-04-24T00:48:21;4.90;;;4.37;;
11582;SDS011;34299;50.820;4.548;2023-04-24T00:50:49;10.60;;;6.30;;
11582;SDS011;34299;50.820;4.548;2023-04-24T00:53:17;10.37;;;6.63;;
11582;SDS011;34299;50.820;4.548;2023-04-24T00:55:44;5.23;;;4.47;;
11582;SDS011;34299;50.820;4.548;2023-04-24T00:58:11;12.17;;;5.70;;
11582;SDS011;34299;50.820;4.548;2023-04-24T01:00:39;6.93;;;4.67;;
11582;SDS011;34299;50.820;4.548;2023-04-24T01:03:07;13.13;;;6.13;;
11582;SDS011;34299;50.820;4.548;2023-04-24T01:05:36;7.00;;;5.30;;
11582;SDS011;34299;50.820;4.548;2023-04-24T01:08:04;10.30;;;5.50;;
11582;SDS011;34299;50.820;4.548;2023-04-24T01:10:32;10.43;;;5.90;;
11582;SDS011;34299;50.820;4.548;2023-04-24T01:12:59;7.53;;;4.13;;
11582;SDS011;34299;50.820;4.548;2023-04-24T01:15:27;4.83;;;3.70;;
11582;SDS011;34299;50.820;4.548;2023-04-24T01:17:54;11.53;;;5.47;;
11582;SDS011;34299;50.820;4.548;2023-04-24T01:20:22;3.17;;;2.87;;
11582;SDS011;34299;50.820;4.548;2023-04-24T01:22:51;15.10;;;4.77;;
11582;SDS011;34299;50.820;4.548;2023-04-24T01:25:18;4.60;;;3.80;;
11582;SDS011;34299;50.820;4.548;2023-04-24T01:27:45;8.40;;;2.93;;
11582;SDS011;34299;50.820;4.548;2023-04-24T01:30:13;7.27;;;4.83;;
11582;SDS011;34299;50.820;4.548;2023-04-24T01:32:40;9.07;;;4.70;;
11582;SDS011;34299;50.820;4.548;2023-04-24T01:35:09;8.10;;;2.80;;
11582;SDS011;34299;50.820;4.548;2023-04-24T01:37:37;12.27;;;5.70;;
11582;SDS011;34299;50.820;4.548;2023-04-24T01:40:06;4.13;;;3.27;;
11582;SDS011;34299;50.820;4.548;2023-04-24T01:42:34;6.20;;;4.57;;
11582;SDS011;34299;50.820;4.548;2023-04-24T01:45:02;11.93;;;6.03;;
11582;SDS011;34299;50.820;4.548;2023-04-24T01:47:30;4.83;;;4.33;;
11582;SDS011;34299;50.820;4.548;2023-04-24T01:49:57;3.63;;;3.30;;
11582;SDS011;34299;50.820;4.548;2023-04-24T01:52:25;6.67;;;3.13;;
11582;SDS011;34299;50.820;4.548;2023-04-24T01:54:53;9.60;;;4.70;;
11582;SDS011;34299;50.820;4.548;2023-04-24T01:57:22;7.90;;;5.27;;
11582;SDS011;34299;50.820;4.548;2023-04-24T01:59:50;5.73;;;3.90;;
11582;SDS011;34299;50.820;4.548;2023-04-24T02:02:17;10.73;;;5.33;;
11582;SDS011;34299;50.820;4.548;2023-04-24T02:04:46;6.23;;;3.50;;
11582;SDS011;34299;50.820;4.548;2023-04-24T02:07:13;8.20;;;4.90;;
11582;SDS011;34299;50.820;4.548;2023-04-24T02:09:40;6.37;;;4.93;;
11582;SDS011;34299;50.820;4.548;2023-04-24T02:12:08;11.73;;;5.93;;
11582;SDS011;34299;50.820;4.548;2023-04-24T02:14:36;5.43;;;3.93;;
11582;SDS011;34299;50.820;4.548;2023-04-24T02:17:03;8.97;;;4.60;;
11582;SDS011;34299;50.820;4.548;2023-04-24T02:19:31;4.37;;;3.33;;
11582;SDS011;34299;50.820;4.548;2023-04-24T02:21:58;7.23;;;4.93;;
11582;SDS011;34299;50.820;4.548;2023-04-24T02:24:26;6.07;;;4.83;;
11582;SDS011;34299;50.820;4.548;2023-04-24T02:26:53;8.07;;;4.53;;
11582;SDS011;34299;50.820;4.548;2023-04-24T02:29:20;10.17;;;3.67;;
11582;SDS011;34299;50.820;4.548;2023-04-24T02:31:49;8.87;;;6.07;;
11582;SDS011;34299;50.820;4.548;2023-04-24T02:34:16;13.67;;;6.40;;
11582;SDS011;34299;50.820;4.548;2023-04-24T02:36:43;7.50;;;4.97;;
11582;SDS011;34299;50.820;4.548;2023-04-24T02:39:11;11.43;;;6.37;;
11582;SDS011;34299;50.820;4.548;2023-04-24T02:41:38;10.87;;;5.63;;
11582;SDS011;34299;50.820;4.548;2023-04-24T02:44:05;11.50;;;6.27;;
11582;SDS011;34299;50.820;4.548;2023-04-24T02:46:33;7.97;;;6.10;;
11582;SDS011;34299;50.820;4.548;2023-04-24T02:49:01;11.43;;;6.17;;
11582;SDS011;34299;50.820;4.548;2023-04-24T02:51:29;8.53;;;5.17;;
11582;SDS011;34299;50.820;4.548;2023-04-24T02:53:56;10.63;;;5.17;;
11582;SDS011;34299;50.820;4.548;2023-04-24T02:56:23;7.43;;;4.23;;
11582;SDS011;34299;50.820;4.548;2023-04-24T02:58:50;5.60;;;4.20;;
11582;SDS011;34299;50.820;4.548;2023-04-24T03:01:18;6.53;;;3.90;;
11582;SDS011;34299;50.820;4.548;2023-04-24T03:03:45;7.30;;;4.50;;
11582;SDS011;34299;50.820;4.548;2023-04-24T03:06:14;2.40;;;2.07;;
11582;SDS011;34299;50.820;4.548;2023-04-24T03:08:41;4.70;;;2.63;;
11582;SDS011;34299;50.820;4.548;2023-04-24T03:11:08;5.90;;;4.10;;
11582;SDS011;34299;50.820;4.548;2023-04-24T03:13:35;10.73;;;3.90;;
11582;SDS011;34299;50.820;4.548;2023-04-24T03:16:02;5.13;;;3.17;;
11582;SDS011;34299;50.820;4.548;2023-04-24T03:18:30;3.77;;;2.67;;
11582;SDS011;34299;50.820;4.548;2023-04-24T03:20:58;5.67;;;3.97;;
11582;SDS011;34299;50.820;4.548;2023-04-24T03:23:26;5.27;;;4.03;;
11582;SDS011;34299;50.820;4.548;2023-04-24T03:25:53;7.13;;;3.67;;
11582;SDS011;34299;50.820;4.548;2023-04-24T03:28:21;3.17;;;2.73;;
11582;SDS011;34299;50.820;4.548;2023-04-24T03:30:48;9.53;;;4.10;;
11582;SDS011;34299;50.820;4.548;2023-04-24T03:33:15;6.27;;;5.07;;
11582;SDS011;34299;50.820;4.548;2023-04-24T03:35:42;8.50;;;5.50;;
11582;SDS011;34299;50.820;4.548;2023-04-24T03:38:10;4.83;;;3.90;;
11582;SDS011;34299;50.820;4.548;2023-04-24T03:40:38;5.87;;;3.93;;
11582;SDS011;34299;50.820;4.548;2023-04-24T03:43:05;9.87;;;4.30;;
11582;SDS011;34299;50.820;4.548;2023-04-24T03:45:33;6.00;;;4.73;;
11582;SDS011;34299;50.820;4.548;2023-04-24T03:48:00;6.53;;;4.03;;
11582;SDS011;34299;50.820;4.548;2023-04-24T03:50:27;4.93;;;3.83;;
11582;SDS011;34299;50.820;4.548;2023-04-24T03:52:55;6.63;;;4.73;;
11582;SDS011;34299;50.820;4.548;2023-04-24T03:55:22;8.47;;;5.00;;
11582;SDS011;34299;50.820;4.548;2023-04-24T03:57:51;5.67;;;3.43;;
11582;SDS011;34299;50.820;4.548;2023-04-24T04:00:18;5.97;;;4.33;;
11582;SDS011;34299;50.820;4.548;2023-04-24T04:02:46;4.87;;;3.40;;
11582;SDS011;34299;50.820;4.548;2023-04-24T04:05:13;5.57;;;3.87;;
11582;SDS011;34299;50.820;4.548;2023-04-24T04:07:40;8.80;;;4.57;;
11582;SDS011;34299;50.820;4.548;2023-04-24T04:10:08;5.77;;;3.97;;
11582;SDS011;34299;50.820;4.548;2023-04-24T04:12:35;10.53;;;3.83;;
11582;SDS011;34299;50.820;4.548;2023-04-24T04:15:04;3.60;;;2.20;;
11582;SDS011;34299;50.820;4.548;2023-04-24T04:17:31;5.13;;;4.17;;
11582;SDS011;34299;50.820;4.548;2023-04-24T04:19:59;5.53;;;3.60;;
11582;SDS011;34299;50.820;4.548;2023-04-24T04:22:26;4.03;;;3.17;;
11582;SDS011;34299;50.820;4.548;2023-04-24T04:24:53;5.03;;;3.90;;
11582;SDS011;34299;50.820;4.548;2023-04-24T04:27:21;8.67;;;3.63;;
11582;SDS011;34299;50.820;4.548;2023-04-24T04:29:49;7.03;;;3.60;;
11582;SDS011;34299;50.820;4.548;2023-04-24T04:32:18;7.77;;;3.87;;
11582;SDS011;34299;50.820;4.548;2023-04-24T04:34:45;5.30;;;4.33;;
11582;SDS011;34299;50.820;4.548;2023-04-24T04:37:14;4.90;;;3.17;;
11582;SDS011;34299;50.820;4.548;2023-04-24T04:39:42;6.30;;;3.47;;
11582;SDS011;34299;50.820;4.548;2023-04-24T04:42:09;7.27;;;3.67;;
11582;SDS011;34299;50.820;4.548;2023-04-24T04:44:36;6.70;;;3.97;;
11582;SDS011;34299;50.820;4.548;2023-04-24T04:47:04;5.80;;;3.43;;
11582;SDS011;34299;50.820;4.548;2023-04-24T04:49:35;4.50;;;3.80;;
11582;SDS011;34299;50.820;4.548;2023-04-24T04:52:03;6.63;;;3.50;;
11582;SDS011;34299;50.820;4.548;2023-04-24T04:54:31;4.07;;;3.47;;
11582;SDS011;34299;50.820;4.548;2023-04-24T04:56:58;3.87;;;2.70;;
11582;SDS011;34299;50.820;4.548;2023-04-24T04:59:25;4.40;;;2.90;;
11582;SDS011;34299;50.820;4.548;2023-04-24T05:01:52;6.30;;;3.03;;
11582;SDS011;34299;50.820;4.548;2023-04-24T05:04:20;4.60;;;3.73;;
11582;SDS011;34299;50.820;4.548;2023-04-24T05:06:48;5.00;;;3.80;;
11582;SDS011;34299;50.820;4.548;2023-04-24T05:09:17;6.13;;;4.00;;
11582;SDS011;34299;50.820;4.548;2023-04-24T05:11:44;5.67;;;3.43;;
11582;SDS011;34299;50.820;4.548;2023-04-24T05:14:11;7.27;;;4.67;;
11582;SDS011;34299;50.820;4.548;2023-04-24T05:16:38;7.67;;;4.33;;
11582;SDS011;34299;50.820;4.548;2023-04-24T05:19:06;7.30;;;5.20;;
11582;SDS011;34299;50.820;4.548;2023-04-24T05:21:33;8.73;;;4.63;;
11582;SDS011;34299;50.820;4.548;2023-04-24T05:24:02;8.57;;;5.03;;
11582;SDS011;34299;50.820;4.548;2023-04-24T05:26:29;11.60;;;5.67;;
11582;SDS011;34299;50.820;4.548;2023-04-24T05:28:57;10.50;;;6.40;;
11582;SDS011;34299;50.820;4.548;2023-04-24T05:31:24;9.00;;;4.93;;
11582;SDS011;34299;50.820;4.548;2023-04-24T05:33:51;11.63;;;6.50;;
11582;SDS011;34299;50.820;4.548;2023-04-24T05:36:18;9.80;;;5.50;;
11582;SDS011;34299;50.820;4.548;2023-04-24T05:38:46;12.00;;;6.17;;
11582;SDS011;34299;50.820;4.548;2023-04-24T05:41:14;12.37;;;6.07;;
11582;SDS011;34299;50.820;4.548;2023-04-24T05:43:41;7.23;;;5.53;;
11582;SDS011;34299;50.820;4.548;2023-04-24T05:46:09;9.07;;;5.93;;
11582;SDS011;34299;50.820;4.548;2023-04-24T05:48:36;9.40;;;6.03;;
11582;SDS011;34299;50.820;4.548;2023-04-24T05:51:03;11.40;;;6.23;;
11582;SDS011;34299;50.820;4.548;2023-04-24T05:53:30;7.10;;;5.83;;
11582;SDS011;34299;50.820;4.548;2023-04-24T05:55:58;10.57;;;6.03;;
11582;SDS011;34299;50.820;4.548;2023-04-24T05:58:26;9.70;;;5.83;;
11582;SDS011;34299;50.820;4.548;2023-04-24T06:00:53;9.87;;;6.03;;
11582;SDS011;34299;50.820;4.548;2023-04-24T06:03:21;10.77;;;7.20;;
11582;SDS011;34299;50.820;4.548;2023-04-24T06:05:49;15.17;;;6.23;;
11582;SDS011;34299;50.820;4.548;2023-04-24T06:08:16;10.87;;;7.03;;
11582;SDS011;34299;50.820;4.548;2023-04-24T06:10:44;12.67;;;6.63;;
11582;SDS011;34299;50.820;4.548;2023-04-24T06:13:11;9.83;;;6.87;;
11582;SDS011;34299;50.820;4.548;2023-04-24T06:15:39;11.60;;;5.97;;
11582;SDS011;34299;50.820;4.548;2023-04-24T06:18:07;11.87;;;6.57;;
11582;SDS011;34299;50.820;4.548;2023-04-24T06:20:35;10.43;;;6.27;;
11582;SDS011;34299;50.820;4.548;2023-04-24T06:23:02;14.23;;;7.10;;
11582;SDS011;34299;50.820;4.548;2023-04-24T06:25:29;10.63;;;5.87;;
11582;SDS011;34299;50.820;4.548;2023-04-24T06:27:56;9.20;;;5.83;;
11582;SDS011;34299;50.820;4.548;2023-04-24T06:30:24;10.87;;;7.00;;
11582;SDS011;34299;50.820;4.548;2023-04-24T06:32:53;12.07;;;7.40;;
11582;SDS011;34299;50.820;4.548;2023-04-24T06:35:20;15.73;;;6.60;;
11582;SDS011;34299;50.820;4.548;2023-04-24T06:37:48;12.43;;;6.87;;
11582;SDS011;34299;50.820;4.548;2023-04-24T06:40:15;5.30;;;4.07;;
11582;SDS011;34299;50.820;4.548;2023-04-24T06:42:43;14.07;;;7.27;;
11582;SDS011;34299;50.820;4.548;2023-04-24T06:45:10;17.13;;;8.03;;
11582;SDS011;34299;50.820;4.548;2023-04-24T06:47:38;14.83;;;7.10;;
11582;SDS011;34299;50.820;4.548;2023-04-24T06:50:07;11.80;;;6.87;;
11582;SDS011;34299;50.820;4.548;2023-04-24T06:52:34;9.97;;;5.83;;
11582;SDS011;34299;50.820;4.548;2023-04-24T06:55:01;19.77;;;7.37;;
11582;SDS011;34299;50.820;4.548;2023-04-24T06:57:29;9.33;;;5.10;;
11582;SDS011;34299;50.820;4.548;2023-04-24T06:59:56;14.43;;;7.63;;
11582;SDS011;34299;50.820;4.548;2023-04-24T07:02:24;15.63;;;6.73;;
11582;SDS011;34299;50.820;4.548;2023-04-24T07:04:51;18.80;;;8.80;;
11582;SDS011;34299;50.820;4.548;2023-04-24T07:07:20;17.83;;;9.80;;
11582;SDS011;34299;50.820;4.548;2023-04-24T07:09:48;17.63;;;9.13;;
11582;SDS011;34299;50.820;4.548;2023-04-24T07:12:16;18.57;;;10.30;;
11582;SDS011;34299;50.820;4.548;2023-04-24T07:14:45;16.60;;;9.23;;
11582;SDS011;34299;50.820;4.548;2023-04-24T07:17:13;15.83;;;8.90;;
11582;SDS011;34299;50.820;4.548;2023-04-24T07:19:40;22.63;;;8.17;;
11582;SDS011;34299;50.820;4.548;2023-04-24T07:22:07;12.80;;;8.43;;
11582;SDS011;34299;50.820;4.548;2023-04-24T07:24:37;17.23;;;10.20;;
11582;SDS011;34299;50.820;4.548;2023-04-24T07:27:05;20.63;;;9.07;;
11582;SDS011;34299;50.820;4.548;2023-04-24T07:29:32;8.40;;;4.97;;
11582;SDS011;34299;50.820;4.548;2023-04-24T07:31:59;15.70;;;7.53;;
11582;SDS011;34299;50.820;4.548;2023-04-24T07:34:26;10.80;;;6.50;;
11582;SDS011;34299;50.820;4.548;2023-04-24T07:36:53;14.47;;;7.83;;
11582;SDS011;34299;50.820;4.548;2023-04-24T07:39:22;17.57;;;7.53;;
11582;SDS011;34299;50.820;4.548;2023-04-24T07:41:50;11.17;;;7.80;;
11582;SDS011;34299;50.820;4.548;2023-04-24T07:44:18;6.90;;;4.47;;
11582;SDS011;34299;50.820;4.548;2023-04-24T07:46:45;11.40;;;6.43;;
11582;SDS011;34299;50.820;4.548;2023-04-24T07:49:12;12.10;;;7.60;;
11582;SDS011;34299;50.820;4.548;2023-04-24T07:51:39;9.50;;;5.27;;
11582;SDS011;34299;50.820;4.548;2023-04-24T07:54:07;12.30;;;7.60;;
11582;SDS011;34299;50.820;4.548;2023-04-24T07:56:34;12.33;;;5.43;;
11582;SDS011;34299;50.820;4.548;2023-04-24T07:59:05;9.80;;;4.83;;
11582;SDS011;34299;50.820;4.548;2023-04-24T08:01:32;8.80;;;4.63;;
11582;SDS011;34299;50.820;4.548;2023-04-24T08:03:59;8.00;;;5.83;;
11582;SDS011;34299;50.820;4.548;2023-04-24T08:06:26;9.87;;;5.83;;
11582;SDS011;34299;50.820;4.548;2023-04-24T08:08:55;9.67;;;5.50;;
11582;SDS011;34299;50.820;4.548;2023-04-24T08:11:23;9.13;;;5.57;;
11582;SDS011;34299;50.820;4.548;2023-04-24T08:13:50;7.20;;;4.50;;
11582;SDS011;34299;50.820;4.548;2023-04-24T08:16:19;14.43;;;7.67;;
11582;SDS011;34299;50.820;4.548;2023-04-24T08:18:46;12.90;;;7.17;;
11582;SDS011;34299;50.820;4.548;2023-04-24T08:21:13;7.07;;;5.00;;
11582;SDS011;34299;50.820;4.548;2023-04-24T08:23:42;8.93;;;5.37;;
11582;SDS011;34299;50.820;4.548;2023-04-24T08:26:09;7.70;;;5.33;;
11582;SDS011;34299;50.820;4.548;2023-04-24T08:28:36;11.60;;;5.23;;
11582;SDS011;34299;50.820;4.548;2023-04-24T08:31:04;11.03;;;5.20;;
11582;SDS011;34299;50.820;4.548;2023-04-24T08:33:32;10.37;;;5.63;;
11582;SDS011;34299;50.820;4.548;2023-04-24T08:36:00;11.30;;;6.20;;
11582;SDS011;34299;50.820;4.548;2023-04-24T08:38:28;9.33;;;5.77;;
11582;SDS011;34299;50.820;4.548;2023-04-24T08:40:56;10.10;;;5.97;;
11582;SDS011;34299;50.820;4.548;2023-04-24T08:43:23;13.87;;;6.17;;
11582;SDS011;34299;50.820;4.548;2023-04-24T08:45:52;12.20;;;4.47;;
11582;SDS011;34299;50.820;4.548;2023-04-24T08:48:19;10.27;;;4.70;;
11582;SDS011;34299;50.820;4.548;2023-04-24T08:50:48;11.07;;;6.10;;
11582;SDS011;34299;50.820;4.548;2023-04-24T08:53:17;9.23;;;4.97;;
11582;SDS011;34299;50.820;4.548;2023-04-24T08:55:45;8.13;;;5.27;;
11582;SDS011;34299;50.820;4.548;2023-04-24T08:58:13;8.97;;;5.10;;
11582;SDS011;34299;50.820;4.548;2023-04-24T09:00:41;7.77;;;4.70;;
11582;SDS011;34299;50.820;4.548;2023-04-24T09:03:11;11.63;;;4.40;;
11582;SDS011;34299;50.820;4.548;2023-04-24T09:05:40;7.73;;;3.93;;
11582;SDS011;34299;50.820;4.548;2023-04-24T09:08:12;5.23;;;3.07;;
11582;SDS011;34299;50.820;4.548;2023-04-24T09:10:40;11.03;;;5.27;;
11582;SDS011;34299;50.820;4.548;2023-04-24T09:13:07;6.47;;;3.73;;
11582;SDS011;34299;50.820;4.548;2023-04-24T09:15:35;8.57;;;3.97;;
11582;SDS011;34299;50.820;4.548;2023-04-24T09:18:02;7.53;;;4.23;;
11582;SDS011;34299;50.820;4.548;2023-04-24T09:20:30;6.10;;;3.47;;
11582;SDS011;34299;50.820;4.548;2023-04-24T09:22:57;7.07;;;3.17;;
11582;SDS011;34299;50.820;4.548;2023-04-24T09:25:30;11.10;;;3.53;;
11582;SDS011;34299;50.820;4.548;2023-04-24T09:28:00;3.73;;;2.47;;
11582;SDS011;34299;50.820;4.548;2023-04-24T09:30:27;4.63;;;3.13;;
11582;SDS011;34299;50.820;4.548;2023-04-24T09:33:09;11.63;;;2.70;;
11582;SDS011;34299;50.820;4.548;2023-04-24T09:35:37;4.87;;;2.67;;
11582;SDS011;34299;50.820;4.548;2023-04-24T09:38:07;4.67;;;2.77;;
11582;SDS011;34299;50.820;4.548;2023-04-24T09:40:35;4.30;;;3.50;;
11582;SDS011;34299;50.820;4.548;2023-04-24T09:43:02;6.30;;;2.93;;
11582;SDS011;34299;50.820;4.548;2023-04-24T09:45:34;6.13;;;2.53;;
11582;SDS011;34299;50.820;4.548;2023-04-24T09:48:02;4.97;;;2.90;;
11582;SDS011;34299;50.820;4.548;2023-04-24T09:50:30;7.20;;;2.33;;
11582;SDS011;34299;50.820;4.548;2023-04-24T09:53:00;9.53;;;3.00;;
11582;SDS011;34299;50.820;4.548;2023-04-24T09:55:28;4.10;;;2.67;;
11582;SDS011;34299;50.820;4.548;2023-04-24T09:57:58;5.00;;;3.20;;
11582;SDS011;34299;50.820;4.548;2023-04-24T10:00:26;4.73;;;2.30;;
11582;SDS011;34299;50.820;4.548;2023-04-24T10:02:54;4.30;;;2.43;;
11582;SDS011;34299;50.820;4.548;2023-04-24T10:05:27;5.73;;;2.77;;
11582;SDS011;34299;50.820;4.548;2023-04-24T10:07:58;4.57;;;2.30;;
11582;SDS011;34299;50.820;4.548;2023-04-24T10:10:26;4.97;;;2.53;;
11582;SDS011;34299;50.820;4.548;2023-04-24T10:12:53;5.63;;;3.07;;
11582;SDS011;34299;50.820;4.548;2023-04-24T10:15:22;8.70;;;3.20;;
11582;SDS011;34299;50.820;4.548;2023-04-24T10:17:51;6.47;;;2.90;;
11582;SDS011;34299;50.820;4.548;2023-04-24T10:20:21;2.47;;;2.07;;
11582;SDS011;34299;50.820;4.548;2023-04-24T10:22:50;7.43;;;2.97;;
11582;SDS011;34299;50.820;4.548;2023-04-24T10:25:18;4.30;;;2.77;;
11582;SDS011;34299;50.820;4.548;2023-04-24T10:27:46;5.03;;;2.63;;
11582;SDS011;34299;50.820;4.548;2023-04-24T10:30:14;3.60;;;2.60;;
11582;SDS011;34299;50.820;4.548;2023-04-24T10:32:43;3.90;;;2.73;;
11582;SDS011;34299;50.820;4.548;2023-04-24T10:35:12;4.33;;;2.33;;
11582;SDS011;34299;50.820;4.548;2023-04-24T10:37:40;5.37;;;2.57;;
11582;SDS011;34299;50.820;4.548;2023-04-24T10:40:09;5.30;;;2.57;;
11582;SDS011;34299;50.820;4.548;2023-04-24T10:42:39;4.23;;;2.70;;
11582;SDS011;34299;50.820;4.548;2023-04-24T10:45:15;8.53;;;2.87;;
11582;SDS011;34299;50.820;4.548;2023-04-24T10:47:51;5.93;;;2.57;;
11582;SDS011;34299;50.820;4.548;2023-04-24T10:50:18;5.73;;;2.90;;
11582;SDS011;34299;50.820;4.548;2023-04-24T10:52:46;4.10;;;2.80;;
11582;SDS011;34299;50.820;4.548;2023-04-24T10:55:13;4.43;;;2.97;;
11582;SDS011;34299;50.820;4.548;2023-04-24T11:00:24;8.20;;;2.83;;
11582;SDS011;34299;50.820;4.548;2023-04-24T11:02:54;5.27;;;2.87;;
11582;SDS011;34299;50.820;4.548;2023-04-24T11:05:22;4.80;;;2.73;;
11582;SDS011;34299;50.820;4.548;2023-04-24T11:10:43;5.87;;;2.77;;
11582;SDS011;34299;50.820;4.548;2023-04-24T11:13:11;4.70;;;3.00;;
11582;SDS011;34299;50.820;4.548;2023-04-24T11:15:41;5.23;;;2.57;;
11582;SDS011;34299;50.820;4.548;2023-04-24T11:18:13;4.87;;;3.13;;
11582;SDS011;34299;50.820;4.548;2023-04-24T11:20:42;5.73;;;3.33;;
11582;SDS011;34299;50.820;4.548;2023-04-24T11:23:09;3.70;;;2.90;;
11582;SDS011;34299;50.820;4.548;2023-04-24T11:25:39;7.57;;;3.23;;
11582;SDS011;34299;50.820;4.548;2023-04-24T11:28:06;5.73;;;3.53;;
11582;SDS011;34299;50.820;4.548;2023-04-24T11:30:33;3.73;;;3.20;;
11582;SDS011;34299;50.820;4.548;2023-04-24T11:33:04;6.37;;;3.73;;
11582;SDS011;34299;50.820;4.548;2023-04-24T11:35:36;4.47;;;3.13;;
11582;SDS011;34299;50.820;4.548;2023-04-24T11:38:05;4.53;;;3.10;;
11582;SDS011;34299;50.820;4.548;2023-04-24T11:40:33;3.83;;;3.20;;
11582;SDS011;34299;50.820;4.548;2023-04-24T11:43:01;3.87;;;2.33;;
11582;SDS011;34299;50.820;4.548;2023-04-24T11:45:29;5.70;;;3.50;;
11582;SDS011;34299;50.820;4.548;2023-04-24T11:47:56;4.00;;;2.90;;
11582;SDS011;34299;50.820;4.548;2023-04-24T11:50:24;3.10;;;2.60;;
11582;SDS011;34299;50.820;4.548;2023-04-24T11:52:54;6.37;;;3.27;;
11582;SDS011;34299;50.820;4.548;2023-04-24T11:55:25;4.27;;;3.00;;
11582;SDS011;34299;50.820;4.548;2023-04-24T11:57:53;6.50;;;3.00;;
11582;SDS011;34299;50.820;4.548;2023-04-24T12:00:22;8.00;;;3.43;;
11582;SDS011;34299;50.820;4.548;2023-04-24T12:02:49;4.33;;;3.30;;
11582;SDS011;34299;50.820;4.548;2023-04-24T12:05:20;5.10;;;3.03;;
11582;SDS011;34299;50.820;4.548;2023-04-24T12:07:48;9.93;;;4.20;;
11582;SDS011;34299;50.820;4.548;2023-04-24T12:10:21;5.10;;;3.30;;
11582;SDS011;34299;50.820;4.548;2023-04-24T12:12:48;6.30;;;3.67;;
11582;SDS011;34299;50.820;4.548;2023-04-24T12:15:16;6.67;;;3.70;;
11582;SDS011;34299;50.820;4.548;2023-04-24T12:17:44;6.67;;;4.17;;
11582;SDS011;34299;50.820;4.548;2023-04-24T12:20:12;6.50;;;4.57;;
11582;SDS011;34299;50.820;4.548;2023-04-24T12:22:43;6.57;;;4.20;;
11582;SDS011;34299;50.820;4.548;2023-04-24T12:25:11;3.53;;;3.13;;
11582;SDS011;34299;50.820;4.548;2023-04-24T12:27:40;5.10;;;3.67;;
11582;SDS011;34299;50.820;4.548;2023-04-24T12:30:10;4.57;;;3.83;;
11582;SDS011;34299;50.820;4.548;2023-04-24T12:32:40;8.73;;;4.10;;
11582;SDS011;34299;50.820;4.548;2023-04-24T12:35:08;6.10;;;3.97;;
11582;SDS011;34299;50.820;4.548;2023-04-24T12:37:35;7.53;;;4.03;;
11582;SDS011;34299;50.820;4.548;2023-04-24T12:40:05;3.47;;;2.57;;
11582;SDS011;34299;50.820;4.548;2023-04-24T12:42:33;4.70;;;3.17;;
11582;SDS011;34299;50.820;4.548;2023-04-24T12:45:02;3.63;;;3.27;;
11582;SDS011;34299;50.820;4.548;2023-04-24T12:47:30;6.17;;;3.80;;
11582;SDS011;34299;50.820;4.548;2023-04-24T12:49:57;5.57;;;3.83;;
11582;SDS011;34299;50.820;4.548;2023-04-24T12:52:25;5.77;;;3.40;;
11582;SDS011;34299;50.820;4.548;2023-04-24T12:54:52;4.83;;;3.50;;
11582;SDS011;34299;50.820;4.548;2023-04-24T12:57:20;4.23;;;3.30;;
11582;SDS011;34299;50.820;4.548;2023-04-24T12:59:47;7.77;;;3.03;;
11582;SDS011;34299;50.820;4.548;2023-04-24T13:02:16;6.40;;;3.10;;
11582;SDS011;34299;50.820;4.548;2023-04-24T13:04:44;5.00;;;3.00;;
11582;SDS011;34299;50.820;4.548;2023-04-24T13:07:12;5.77;;;2.90;;
11582;SDS011;34299;50.820;4.548;2023-04-24T13:09:39;4.03;;;3.00;;
11582;SDS011;34299;50.820;4.548;2023-04-24T13:12:07;3.20;;;2.80;;
11582;SDS011;34299;50.820;4.548;2023-04-24T13:14:34;5.00;;;3.00;;
11582;SDS011;34299;50.820;4.548;2023-04-24T13:17:01;4.57;;;3.23;;
11582;SDS011;34299;50.820;4.548;2023-04-24T13:19:34;4.20;;;2.57;;
11582;SDS011;34299;50.820;4.548;2023-04-24T13:22:02;3.00;;;2.37;;
11582;SDS011;34299;50.820;4.548;2023-04-24T13:24:29;4.37;;;2.80;;
11582;SDS011;34299;50.820;4.548;2023-04-24T13:26:57;3.07;;;2.40;;
11582;SDS011;34299;50.820;4.548;2023-04-24T13:29:25;4.50;;;2.70;;
11582;SDS011;34299;50.820;4.548;2023-04-24T13:31:52;4.60;;;2.33;;
11582;SDS011;34299;50.820;4.548;2023-04-24T13:34:20;2.30;;;2.10;;
11582;SDS011;34299;50.820;4.548;2023-04-24T13:36:48;4.20;;;2.40;;
11582;SDS011;34299;50.820;4.548;2023-04-24T13:39:16;4.33;;;2.77;;
11582;SDS011;34299;50.820;4.548;2023-04-24T13:41:44;3.00;;;2.40;;
11582;SDS011;34299;50.820;4.548;2023-04-24T13:44:12;4.47;;;2.83;;
11582;SDS011;34299;50.820;4.548;2023-04-24T13:46:40;2.93;;;2.30;;
11582;SDS011;34299;50.820;4.548;2023-04-24T13:49:08;2.33;;;2.00;;
11582;SDS011;34299;50.820;4.548;2023-04-24T13:51:35;4.20;;;2.20;;
11582;SDS011;34299;50.820;4.548;2023-04-24T13:54:04;4.93;;;2.73;;
11582;SDS011;34299;50.820;4.548;2023-04-24T13:56:31;2.73;;;2.37;;
11582;SDS011;34299;50.820;4.548;2023-04-24T13:58:59;2.80;;;2.43;;
11582;SDS011;34299;50.820;4.548;2023-04-24T14:01:26;2.93;;;2.20;;
11582;SDS011;34299;50.820;4.548;2023-04-24T14:03:54;2.60;;;2.27;;
11582;SDS011;34299;50.820;4.548;2023-04-24T14:06:22;7.27;;;1.90;;
11582;SDS011;34299;50.820;4.548;2023-04-24T14:08:49;2.63;;;2.10;;
11582;SDS011;34299;50.820;4.548;2023-04-24T14:11:18;4.87;;;2.03;;
11582;SDS011;34299;50.820;4.548;2023-04-24T14:13:46;2.37;;;2.10;;
11582;SDS011;34299;50.820;4.548;2023-04-24T14:16:13;2.53;;;1.87;;
11582;SDS011;34299;50.820;4.548;2023-04-24T14:18:40;4.73;;;2.30;;
11582;SDS011;34299;50.820;4.548;2023-04-24T14:21:08;2.87;;;1.87;;
11582;SDS011;34299;50.820;4.548;2023-04-24T14:23:35;2.17;;;1.70;;
11582;SDS011;34299;50.820;4.548;2023-04-24T14:26:02;3.80;;;2.20;;
11582;SDS011;34299;50.820;4.548;2023-04-24T14:28:32;3.63;;;1.80;;
11582;SDS011;34299;50.820;4.548;2023-04-24T14:30:59;6.87;;;2.00;;
11582;SDS011;34299;50.820;4.548;2023-04-24T14:33:26;3.40;;;1.90;;
11582;SDS011;34299;50.820;4.548;2023-04-24T14:35:54;3.27;;;1.77;;
11582;SDS011;34299;50.820;4.548;2023-04-24T14:38:21;2.97;;;1.77;;
11582;SDS011;34299;50.820;4.548;2023-04-24T14:40:48;3.40;;;1.67;;
11582;SDS011;34299;50.820;4.548;2023-04-24T14:43:16;1.70;;;1.60;;
11582;SDS011;34299;50.820;4.548;2023-04-24T14:45:44;2.10;;;1.50;;
11582;SDS011;34299;50.820;4.548;2023-04-24T14:48:11;3.73;;;1.70;;
11582;SDS011;34299;50.820;4.548;2023-04-24T14:50:39;3.93;;;1.50;;
11582;SDS011;34299;50.820;4.548;2023-04-24T14:53:06;3.03;;;1.43;;